Pagina principale
METAR-TAF:

METAR-TAF

Aeroporti :

Wiener Neustadt, Austria

latitudine: 47-50-36N, longitudine: 016-15-29E, altezza: 272 m

Osservazione

Il bollettino è stato emesso 1 ora e 12 minuti fa, alle 07:00 UTC
Vento 6 kt da nord/nord-est
Temperature
Pressione

METAR: LOAN 270700Z 03006KT 35KM FEW045CU

Ora: 10:12 (08:12 UTC)

Previsione

Il bollettino è stato emesso 1 ora e 12 minuti fa, alle 07:00 UTC
Previsione valida dal 27 alle 07 UTC al 27 alle 15 UTC
Vento 10 kt da nord/nord-est
Visibilità 10 km o più
Poco nuvoloso ad un'altezza di 5000 ft
Temporaneamente
dal 27 alle 07 UTC al 27 alle 15 UTC
Vento 15 kt da nord/nord-est

TAF: LOAN 270700Z 2707/2715 03010KT 9999 FEW050 TEMPO 2707/2715 03015KT

Osservazioni e previsioni meteorologiche di più di 4000 aeroporti (messaggi METAR e TAF).

Le stazioni disponibili sono rappresentate dai dischi gialli e rossi sulla carta.

Puntare il mouse per vedere il nome della stazione.

Clicca sopra per visualizzare le osservazioni e previsioni meteorologiche.

Per cambiare la mappa : fare clic sui pulsanti verdi con una croce nera per ingrandire, il pulsante verde con un trattino per diminuire, o sulla freccia verde per le mappe adiacenti.


METAR-TAF: